Gray, Georgia
Current Conditions -  °F | °C
As of 5:35 AM on Monday 22 Dec 2014 (Local Time) from KMLJ Reporting Station
Haze Haze  
Wind Chill: 46°   Ceiling: 500
Heat Index: 46°   Visibility: 5mi
Dew Point: 46°   Wind: 0mph
Humidity: 100%   Direction: NA
Pressure: 30.04"   Gusts: NA
Location:  33.01°N, 83.53°W
Report Text: KMLJ 221035Z AUTO 00000KT 5SM BR OVC005 08/08 A3004 RMK AO2
Loading
Personal Weather Stations






























Interactive Weather Map New forecast layout! Learn more

10-Day Weather Forecast

Advertisements
Track Severe Weather on mobile